sensor_id;sensor_type;location;lat;lon;timestamp;P1;durP1;ratioP1;P2;durP2;ratioP2
5995;SDS011;3026;53.612;7.278;2022-09-09T00:00:11;18.60;;;12.20;;
5995;SDS011;3026;53.612;7.278;2022-09-09T00:02:41;15.23;;;12.37;;
5995;SDS011;3026;53.612;7.278;2022-09-09T00:05:17;18.57;;;12.50;;
5995;SDS011;3026;53.612;7.278;2022-09-09T00:07:53;16.97;;;13.33;;
5995;SDS011;3026;53.612;7.278;2022-09-09T00:10:27;14.60;;;12.87;;
5995;SDS011;3026;53.612;7.278;2022-09-09T00:12:58;15.53;;;11.00;;
5995;SDS011;3026;53.612;7.278;2022-09-09T00:15:34;14.07;;;11.93;;
5995;SDS011;3026;53.612;7.278;2022-09-09T00:18:09;16.63;;;12.37;;
5995;SDS011;3026;53.612;7.278;2022-09-09T00:20:46;14.40;;;11.10;;
5995;SDS011;3026;53.612;7.278;2022-09-09T00:23:20;15.00;;;11.80;;
5995;SDS011;3026;53.612;7.278;2022-09-09T00:25:54;18.33;;;12.40;;
5995;SDS011;3026;53.612;7.278;2022-09-09T00:28:28;17.33;;;11.90;;
5995;SDS011;3026;53.612;7.278;2022-09-09T00:30:59;13.83;;;11.17;;
5995;SDS011;3026;53.612;7.278;2022-09-09T00:33:34;14.57;;;11.53;;
5995;SDS011;3026;53.612;7.278;2022-09-09T00:36:03;14.93;;;11.33;;
5995;SDS011;3026;53.612;7.278;2022-09-09T00:38:42;16.33;;;11.90;;
5995;SDS011;3026;53.612;7.278;2022-09-09T00:41:11;15.40;;;12.23;;
5995;SDS011;3026;53.612;7.278;2022-09-09T00:43:46;16.63;;;11.70;;
5995;SDS011;3026;53.612;7.278;2022-09-09T00:49:23;15.37;;;12.20;;
5995;SDS011;3026;53.612;7.278;2022-09-09T00:52:02;14.97;;;12.20;;
5995;SDS011;3026;53.612;7.278;2022-09-09T00:54:40;13.13;;;11.67;;
5995;SDS011;3026;53.612;7.278;2022-09-09T00:57:23;17.83;;;12.13;;
5995;SDS011;3026;53.612;7.278;2022-09-09T00:59:56;14.90;;;11.60;;
5995;SDS011;3026;53.612;7.278;2022-09-09T01:02:31;13.20;;;11.03;;
5995;SDS011;3026;53.612;7.278;2022-09-09T01:05:06;14.40;;;11.47;;
5995;SDS011;3026;53.612;7.278;2022-09-09T01:07:40;16.13;;;10.93;;
5995;SDS011;3026;53.612;7.278;2022-09-09T01:10:14;16.17;;;11.10;;
5995;SDS011;3026;53.612;7.278;2022-09-09T01:12:50;14.13;;;10.97;;
5995;SDS011;3026;53.612;7.278;2022-09-09T01:15:20;15.33;;;10.90;;
5995;SDS011;3026;53.612;7.278;2022-09-09T01:17:53;11.63;;;10.33;;
5995;SDS011;3026;53.612;7.278;2022-09-09T01:20:28;12.23;;;9.90;;
5995;SDS011;3026;53.612;7.278;2022-09-09T01:26:17;13.63;;;9.43;;
5995;SDS011;3026;53.612;7.278;2022-09-09T01:28:46;12.77;;;9.87;;
5995;SDS011;3026;53.612;7.278;2022-09-09T01:31:16;13.03;;;9.03;;
5995;SDS011;3026;53.612;7.278;2022-09-09T01:33:44;13.37;;;10.10;;
5995;SDS011;3026;53.612;7.278;2022-09-09T01:36:12;15.37;;;9.67;;
5995;SDS011;3026;53.612;7.278;2022-09-09T01:38:45;13.53;;;9.10;;
5995;SDS011;3026;53.612;7.278;2022-09-09T01:41:12;11.63;;;9.37;;
5995;SDS011;3026;53.612;7.278;2022-09-09T01:43:43;10.53;;;9.03;;
5995;SDS011;3026;53.612;7.278;2022-09-09T01:46:10;11.43;;;9.43;;
5995;SDS011;3026;53.612;7.278;2022-09-09T01:48:38;10.47;;;9.33;;
5995;SDS011;3026;53.612;7.278;2022-09-09T01:51:07;13.47;;;9.93;;
5995;SDS011;3026;53.612;7.278;2022-09-09T01:53:35;11.63;;;9.13;;
5995;SDS011;3026;53.612;7.278;2022-09-09T01:56:05;11.70;;;9.80;;
5995;SDS011;3026;53.612;7.278;2022-09-09T01:58:44;11.87;;;9.33;;
5995;SDS011;3026;53.612;7.278;2022-09-09T02:01:22;11.03;;;9.10;;
5995;SDS011;3026;53.612;7.278;2022-09-09T02:03:55;12.80;;;9.33;;
5995;SDS011;3026;53.612;7.278;2022-09-09T02:06:25;10.93;;;9.30;;
5995;SDS011;3026;53.612;7.278;2022-09-09T02:08:56;11.13;;;8.60;;
5995;SDS011;3026;53.612;7.278;2022-09-09T02:11:26;11.37;;;9.30;;
5995;SDS011;3026;53.612;7.278;2022-09-09T02:13:57;11.63;;;9.30;;
5995;SDS011;3026;53.612;7.278;2022-09-09T02:16:28;12.33;;;9.10;;
5995;SDS011;3026;53.612;7.278;2022-09-09T02:19:01;11.90;;;9.10;;
5995;SDS011;3026;53.612;7.278;2022-09-09T02:21:32;14.97;;;9.67;;
5995;SDS011;3026;53.612;7.278;2022-09-09T02:24:02;11.23;;;8.60;;
5995;SDS011;3026;53.612;7.278;2022-09-09T02:26:35;9.93;;;8.17;;
5995;SDS011;3026;53.612;7.278;2022-09-09T02:29:07;11.87;;;8.93;;
5995;SDS011;3026;53.612;7.278;2022-09-09T02:31:38;12.17;;;9.37;;
5995;SDS011;3026;53.612;7.278;2022-09-09T02:34:07;12.77;;;8.40;;
5995;SDS011;3026;53.612;7.278;2022-09-09T02:36:36;16.00;;;9.80;;
5995;SDS011;3026;53.612;7.278;2022-09-09T02:39:07;12.67;;;9.50;;
5995;SDS011;3026;53.612;7.278;2022-09-09T02:41:36;11.77;;;9.37;;
5995;SDS011;3026;53.612;7.278;2022-09-09T02:44:08;12.03;;;9.57;;
5995;SDS011;3026;53.612;7.278;2022-09-09T02:46:43;11.27;;;9.90;;
5995;SDS011;3026;53.612;7.278;2022-09-09T02:49:21;11.47;;;8.67;;
5995;SDS011;3026;53.612;7.278;2022-09-09T02:51:57;12.57;;;9.40;;
5995;SDS011;3026;53.612;7.278;2022-09-09T02:54:28;10.90;;;8.53;;
5995;SDS011;3026;53.612;7.278;2022-09-09T02:56:59;10.00;;;8.63;;
5995;SDS011;3026;53.612;7.278;2022-09-09T02:59:31;8.67;;;7.07;;
5995;SDS011;3026;53.612;7.278;2022-09-09T03:01:58;12.10;;;8.53;;
5995;SDS011;3026;53.612;7.278;2022-09-09T03:04:26;12.97;;;8.63;;
5995;SDS011;3026;53.612;7.278;2022-09-09T03:06:52;11.90;;;9.23;;
5995;SDS011;3026;53.612;7.278;2022-09-09T03:09:19;12.13;;;8.63;;
5995;SDS011;3026;53.612;7.278;2022-09-09T03:11:46;10.23;;;8.27;;
5995;SDS011;3026;53.612;7.278;2022-09-09T03:14:14;11.67;;;8.53;;
5995;SDS011;3026;53.612;7.278;2022-09-09T03:16:43;10.67;;;8.83;;
5995;SDS011;3026;53.612;7.278;2022-09-09T03:19:09;16.53;;;10.30;;
5995;SDS011;3026;53.612;7.278;2022-09-09T03:21:37;14.53;;;8.83;;
5995;SDS011;3026;53.612;7.278;2022-09-09T03:24:03;10.90;;;8.67;;
5995;SDS011;3026;53.612;7.278;2022-09-09T03:26:31;14.53;;;8.80;;
5995;SDS011;3026;53.612;7.278;2022-09-09T03:28:58;10.90;;;8.47;;
5995;SDS011;3026;53.612;7.278;2022-09-09T03:31:26;9.87;;;8.43;;
5995;SDS011;3026;53.612;7.278;2022-09-09T03:33:56;13.70;;;8.30;;
5995;SDS011;3026;53.612;7.278;2022-09-09T03:36:24;12.37;;;9.67;;
5995;SDS011;3026;53.612;7.278;2022-09-09T03:38:53;13.50;;;8.60;;
5995;SDS011;3026;53.612;7.278;2022-09-09T03:41:21;13.03;;;8.77;;
5995;SDS011;3026;53.612;7.278;2022-09-09T03:43:49;13.33;;;8.93;;
5995;SDS011;3026;53.612;7.278;2022-09-09T03:46:15;9.80;;;8.80;;
5995;SDS011;3026;53.612;7.278;2022-09-09T03:48:42;12.60;;;9.70;;
5995;SDS011;3026;53.612;7.278;2022-09-09T03:51:10;13.80;;;9.33;;
5995;SDS011;3026;53.612;7.278;2022-09-09T03:53:38;13.60;;;8.90;;
5995;SDS011;3026;53.612;7.278;2022-09-09T03:56:05;12.67;;;9.13;;
5995;SDS011;3026;53.612;7.278;2022-09-09T03:58:33;12.57;;;9.37;;
5995;SDS011;3026;53.612;7.278;2022-09-09T04:01:01;13.57;;;10.20;;
5995;SDS011;3026;53.612;7.278;2022-09-09T04:03:29;11.17;;;8.77;;
5995;SDS011;3026;53.612;7.278;2022-09-09T04:05:57;12.87;;;9.80;;
5995;SDS011;3026;53.612;7.278;2022-09-09T04:08:26;11.20;;;9.43;;
5995;SDS011;3026;53.612;7.278;2022-09-09T04:10:53;10.50;;;9.10;;
5995;SDS011;3026;53.612;7.278;2022-09-09T04:13:23;14.97;;;9.43;;
5995;SDS011;3026;53.612;7.278;2022-09-09T04:15:50;12.67;;;9.47;;
5995;SDS011;3026;53.612;7.278;2022-09-09T04:18:19;10.53;;;8.70;;
5995;SDS011;3026;53.612;7.278;2022-09-09T04:20:46;11.77;;;8.83;;
5995;SDS011;3026;53.612;7.278;2022-09-09T04:23:13;9.87;;;8.77;;
5995;SDS011;3026;53.612;7.278;2022-09-09T04:25:44;13.93;;;9.03;;
5995;SDS011;3026;53.612;7.278;2022-09-09T04:28:12;13.27;;;8.80;;
5995;SDS011;3026;53.612;7.278;2022-09-09T04:30:40;13.43;;;9.17;;
5995;SDS011;3026;53.612;7.278;2022-09-09T04:33:07;9.57;;;8.57;;
5995;SDS011;3026;53.612;7.278;2022-09-09T04:35:36;13.20;;;9.50;;
5995;SDS011;3026;53.612;7.278;2022-09-09T04:38:03;14.50;;;10.13;;
5995;SDS011;3026;53.612;7.278;2022-09-09T04:40:32;9.57;;;8.50;;
5995;SDS011;3026;53.612;7.278;2022-09-09T04:43:00;11.63;;;9.17;;
5995;SDS011;3026;53.612;7.278;2022-09-09T04:45:30;10.47;;;8.87;;
5995;SDS011;3026;53.612;7.278;2022-09-09T04:47:57;12.27;;;9.33;;
5995;SDS011;3026;53.612;7.278;2022-09-09T04:50:24;10.47;;;9.37;;
5995;SDS011;3026;53.612;7.278;2022-09-09T04:52:51;11.87;;;9.40;;
5995;SDS011;3026;53.612;7.278;2022-09-09T04:55:18;13.57;;;8.87;;
5995;SDS011;3026;53.612;7.278;2022-09-09T04:57:45;12.43;;;9.63;;
5995;SDS011;3026;53.612;7.278;2022-09-09T05:00:14;14.80;;;8.83;;
5995;SDS011;3026;53.612;7.278;2022-09-09T05:02:42;14.20;;;9.47;;
5995;SDS011;3026;53.612;7.278;2022-09-09T05:05:08;12.23;;;9.67;;
5995;SDS011;3026;53.612;7.278;2022-09-09T05:07:36;13.40;;;9.90;;
5995;SDS011;3026;53.612;7.278;2022-09-09T05:10:03;13.80;;;9.20;;
5995;SDS011;3026;53.612;7.278;2022-09-09T05:12:31;10.80;;;9.20;;
5995;SDS011;3026;53.612;7.278;2022-09-09T05:14:58;12.40;;;9.63;;
5995;SDS011;3026;53.612;7.278;2022-09-09T05:17:26;14.83;;;9.43;;
5995;SDS011;3026;53.612;7.278;2022-09-09T05:19:53;11.03;;;9.87;;
5995;SDS011;3026;53.612;7.278;2022-09-09T05:22:20;13.50;;;9.17;;
5995;SDS011;3026;53.612;7.278;2022-09-09T05:24:48;12.93;;;8.90;;
5995;SDS011;3026;53.612;7.278;2022-09-09T05:27:16;15.60;;;8.93;;
5995;SDS011;3026;53.612;7.278;2022-09-09T05:29:43;12.23;;;8.73;;
5995;SDS011;3026;53.612;7.278;2022-09-09T05:32:10;13.23;;;9.07;;
5995;SDS011;3026;53.612;7.278;2022-09-09T05:34:38;11.57;;;8.87;;
5995;SDS011;3026;53.612;7.278;2022-09-09T05:37:04;12.00;;;8.90;;
5995;SDS011;3026;53.612;7.278;2022-09-09T05:39:32;15.63;;;8.87;;
5995;SDS011;3026;53.612;7.278;2022-09-09T05:42:01;11.07;;;8.80;;
5995;SDS011;3026;53.612;7.278;2022-09-09T05:44:30;12.20;;;8.47;;
5995;SDS011;3026;53.612;7.278;2022-09-09T05:46:59;16.10;;;9.17;;
5995;SDS011;3026;53.612;7.278;2022-09-09T05:49:26;11.60;;;7.97;;
5995;SDS011;3026;53.612;7.278;2022-09-09T05:51:54;12.67;;;9.23;;
5995;SDS011;3026;53.612;7.278;2022-09-09T05:54:21;10.87;;;8.37;;
5995;SDS011;3026;53.612;7.278;2022-09-09T05:56:48;14.47;;;8.23;;
5995;SDS011;3026;53.612;7.278;2022-09-09T05:59:17;12.33;;;8.93;;
5995;SDS011;3026;53.612;7.278;2022-09-09T06:01:44;12.07;;;8.47;;
5995;SDS011;3026;53.612;7.278;2022-09-09T06:04:12;12.10;;;7.80;;
5995;SDS011;3026;53.612;7.278;2022-09-09T06:06:39;10.20;;;8.03;;
5995;SDS011;3026;53.612;7.278;2022-09-09T06:09:08;12.63;;;9.10;;
5995;SDS011;3026;53.612;7.278;2022-09-09T06:11:37;10.30;;;7.93;;
5995;SDS011;3026;53.612;7.278;2022-09-09T06:14:05;11.23;;;7.23;;
5995;SDS011;3026;53.612;7.278;2022-09-09T06:16:33;9.83;;;6.90;;
5995;SDS011;3026;53.612;7.278;2022-09-09T06:19:02;7.40;;;6.47;;
5995;SDS011;3026;53.612;7.278;2022-09-09T06:21:30;10.67;;;7.33;;
5995;SDS011;3026;53.612;7.278;2022-09-09T06:23:59;11.30;;;7.13;;
5995;SDS011;3026;53.612;7.278;2022-09-09T06:26:28;11.37;;;7.00;;
5995;SDS011;3026;53.612;7.278;2022-09-09T06:28:56;9.27;;;6.37;;
5995;SDS011;3026;53.612;7.278;2022-09-09T06:31:24;14.37;;;7.17;;
5995;SDS011;3026;53.612;7.278;2022-09-09T06:33:55;10.60;;;6.40;;
5995;SDS011;3026;53.612;7.278;2022-09-09T06:36:24;8.80;;;6.00;;
5995;SDS011;3026;53.612;7.278;2022-09-09T06:38:52;6.63;;;4.70;;
5995;SDS011;3026;53.612;7.278;2022-09-09T06:41:20;12.17;;;5.00;;
5995;SDS011;3026;53.612;7.278;2022-09-09T06:43:50;11.77;;;4.63;;
5995;SDS011;3026;53.612;7.278;2022-09-09T06:46:17;6.90;;;4.00;;
5995;SDS011;3026;53.612;7.278;2022-09-09T06:48:45;6.63;;;2.93;;
5995;SDS011;3026;53.612;7.278;2022-09-09T06:51:13;5.07;;;2.67;;
5995;SDS011;3026;53.612;7.278;2022-09-09T06:53:42;13.50;;;2.47;;
5995;SDS011;3026;53.612;7.278;2022-09-09T06:56:20;3.47;;;2.00;;
5995;SDS011;3026;53.612;7.278;2022-09-09T06:58:49;4.60;;;2.03;;
5995;SDS011;3026;53.612;7.278;2022-09-09T07:01:17;5.90;;;2.83;;
5995;SDS011;3026;53.612;7.278;2022-09-09T07:03:46;5.37;;;3.03;;
5995;SDS011;3026;53.612;7.278;2022-09-09T07:06:16;6.70;;;4.03;;
5995;SDS011;3026;53.612;7.278;2022-09-09T07:08:47;8.73;;;4.63;;
5995;SDS011;3026;53.612;7.278;2022-09-09T07:11:15;7.40;;;4.33;;
5995;SDS011;3026;53.612;7.278;2022-09-09T07:13:42;7.10;;;5.93;;
5995;SDS011;3026;53.612;7.278;2022-09-09T07:16:11;9.90;;;5.43;;
5995;SDS011;3026;53.612;7.278;2022-09-09T07:18:39;5.93;;;4.47;;
5995;SDS011;3026;53.612;7.278;2022-09-09T07:21:06;7.00;;;5.10;;
5995;SDS011;3026;53.612;7.278;2022-09-09T07:23:33;7.83;;;5.17;;
5995;SDS011;3026;53.612;7.278;2022-09-09T07:26:02;6.40;;;5.00;;
5995;SDS011;3026;53.612;7.278;2022-09-09T07:28:29;7.13;;;5.27;;
5995;SDS011;3026;53.612;7.278;2022-09-09T07:30:56;6.57;;;5.13;;
5995;SDS011;3026;53.612;7.278;2022-09-09T07:33:26;9.93;;;5.37;;
5995;SDS011;3026;53.612;7.278;2022-09-09T07:36:01;7.43;;;5.17;;
5995;SDS011;3026;53.612;7.278;2022-09-09T07:38:29;9.00;;;5.00;;
5995;SDS011;3026;53.612;7.278;2022-09-09T07:41:02;5.80;;;5.17;;
5995;SDS011;3026;53.612;7.278;2022-09-09T07:43:30;6.23;;;4.87;;
5995;SDS011;3026;53.612;7.278;2022-09-09T07:45:57;9.77;;;4.67;;
5995;SDS011;3026;53.612;7.278;2022-09-09T07:48:25;8.00;;;5.13;;
5995;SDS011;3026;53.612;7.278;2022-09-09T07:50:52;6.33;;;4.57;;
5995;SDS011;3026;53.612;7.278;2022-09-09T07:53:19;6.33;;;5.10;;
5995;SDS011;3026;53.612;7.278;2022-09-09T07:55:46;5.60;;;4.50;;
5995;SDS011;3026;53.612;7.278;2022-09-09T07:58:13;7.57;;;4.80;;
5995;SDS011;3026;53.612;7.278;2022-09-09T08:00:39;8.53;;;4.67;;
5995;SDS011;3026;53.612;7.278;2022-09-09T08:03:09;6.77;;;4.93;;
5995;SDS011;3026;53.612;7.278;2022-09-09T08:05:37;10.17;;;4.33;;
5995;SDS011;3026;53.612;7.278;2022-09-09T08:08:05;7.20;;;4.33;;
5995;SDS011;3026;53.612;7.278;2022-09-09T08:10:31;8.13;;;5.07;;
5995;SDS011;3026;53.612;7.278;2022-09-09T08:12:58;7.13;;;4.43;;
5995;SDS011;3026;53.612;7.278;2022-09-09T08:15:25;6.97;;;4.90;;
5995;SDS011;3026;53.612;7.278;2022-09-09T08:17:52;5.77;;;4.23;;
5995;SDS011;3026;53.612;7.278;2022-09-09T08:20:19;9.00;;;4.73;;
5995;SDS011;3026;53.612;7.278;2022-09-09T08:22:48;6.43;;;4.27;;
5995;SDS011;3026;53.612;7.278;2022-09-09T08:25:15;6.20;;;4.67;;
5995;SDS011;3026;53.612;7.278;2022-09-09T08:27:42;5.00;;;4.50;;
5995;SDS011;3026;53.612;7.278;2022-09-09T08:30:09;5.57;;;4.33;;
5995;SDS011;3026;53.612;7.278;2022-09-09T08:32:36;6.37;;;4.33;;
5995;SDS011;3026;53.612;7.278;2022-09-09T08:35:03;6.17;;;4.20;;
5995;SDS011;3026;53.612;7.278;2022-09-09T08:37:31;6.10;;;4.40;;
5995;SDS011;3026;53.612;7.278;2022-09-09T08:39:59;8.70;;;4.60;;
5995;SDS011;3026;53.612;7.278;2022-09-09T08:42:35;7.13;;;4.43;;
5995;SDS011;3026;53.612;7.278;2022-09-09T08:50:47;6.73;;;5.50;;
5995;SDS011;3026;53.612;7.278;2022-09-09T08:53:17;6.93;;;5.73;;
5995;SDS011;3026;53.612;7.278;2022-09-09T08:55:50;9.23;;;4.97;;
5995;SDS011;3026;53.612;7.278;2022-09-09T08:58:18;7.13;;;5.43;;
5995;SDS011;3026;53.612;7.278;2022-09-09T09:03:52;10.20;;;5.43;;
5995;SDS011;3026;53.612;7.278;2022-09-09T09:06:31;6.47;;;5.10;;
5995;SDS011;3026;53.612;7.278;2022-09-09T09:09:11;5.67;;;4.60;;
5995;SDS011;3026;53.612;7.278;2022-09-09T09:11:49;7.93;;;5.00;;
5995;SDS011;3026;53.612;7.278;2022-09-09T09:14:19;5.57;;;4.80;;
5995;SDS011;3026;53.612;7.278;2022-09-09T09:16:49;7.83;;;4.57;;
5995;SDS011;3026;53.612;7.278;2022-09-09T09:19:19;7.00;;;4.43;;
5995;SDS011;3026;53.612;7.278;2022-09-09T09:21:49;5.47;;;4.63;;
5995;SDS011;3026;53.612;7.278;2022-09-09T09:24:23;5.33;;;4.83;;
5995;SDS011;3026;53.612;7.278;2022-09-09T09:26:59;5.83;;;4.87;;
5995;SDS011;3026;53.612;7.278;2022-09-09T09:29:36;8.37;;;5.10;;
5995;SDS011;3026;53.612;7.278;2022-09-09T09:32:05;8.83;;;5.13;;
5995;SDS011;3026;53.612;7.278;2022-09-09T09:34:38;8.63;;;4.23;;
5995;SDS011;3026;53.612;7.278;2022-09-09T09:37:11;7.20;;;4.60;;
5995;SDS011;3026;53.612;7.278;2022-09-09T09:39:43;5.07;;;4.33;;
5995;SDS011;3026;53.612;7.278;2022-09-09T09:42:12;5.07;;;3.90;;
5995;SDS011;3026;53.612;7.278;2022-09-09T09:44:40;4.20;;;3.80;;
5995;SDS011;3026;53.612;7.278;2022-09-09T09:47:08;5.17;;;3.30;;
5995;SDS011;3026;53.612;7.278;2022-09-09T09:49:38;4.87;;;3.63;;
5995;SDS011;3026;53.612;7.278;2022-09-09T09:52:06;4.83;;;3.33;;
5995;SDS011;3026;53.612;7.278;2022-09-09T09:54:48;3.33;;;3.00;;
5995;SDS011;3026;53.612;7.278;2022-09-09T09:57:17;5.53;;;3.60;;
5995;SDS011;3026;53.612;7.278;2022-09-09T09:59:59;4.20;;;3.80;;
5995;SDS011;3026;53.612;7.278;2022-09-09T10:02:31;8.27;;;3.90;;
5995;SDS011;3026;53.612;7.278;2022-09-09T10:05:05;3.63;;;3.33;;
5995;SDS011;3026;53.612;7.278;2022-09-09T10:07:38;5.33;;;3.47;;
5995;SDS011;3026;53.612;7.278;2022-09-09T10:10:05;4.40;;;4.00;;
5995;SDS011;3026;53.612;7.278;2022-09-09T10:12:40;3.97;;;3.57;;
5995;SDS011;3026;53.612;7.278;2022-09-09T10:15:23;4.27;;;3.77;;
5995;SDS011;3026;53.612;7.278;2022-09-09T10:18:02;7.33;;;4.30;;
5995;SDS011;3026;53.612;7.278;2022-09-09T10:20:39;4.03;;;3.60;;
5995;SDS011;3026;53.612;7.278;2022-09-09T10:23:16;5.07;;;3.33;;
5995;SDS011;3026;53.612;7.278;2022-09-09T10:26:02;5.03;;;3.53;;
5995;SDS011;3026;53.612;7.278;2022-09-09T10:28:54;6.13;;;3.10;;
5995;SDS011;3026;53.612;7.278;2022-09-09T10:31:34;5.70;;;3.60;;
5995;SDS011;3026;53.612;7.278;2022-09-09T10:34:12;8.20;;;3.53;;
5995;SDS011;3026;53.612;7.278;2022-09-09T10:36:47;6.33;;;2.80;;
5995;SDS011;3026;53.612;7.278;2022-09-09T10:39:18;8.47;;;3.20;;
5995;SDS011;3026;53.612;7.278;2022-09-09T10:42:00;5.50;;;2.77;;
5995;SDS011;3026;53.612;7.278;2022-09-09T10:44:39;8.27;;;3.53;;
5995;SDS011;3026;53.612;7.278;2022-09-09T10:47:20;4.00;;;2.47;;
5995;SDS011;3026;53.612;7.278;2022-09-09T10:50:02;5.47;;;3.03;;
5995;SDS011;3026;53.612;7.278;2022-09-09T10:52:41;7.53;;;2.23;;
5995;SDS011;3026;53.612;7.278;2022-09-09T10:55:15;3.73;;;2.43;;
5995;SDS011;3026;53.612;7.278;2022-09-09T10:57:45;7.43;;;2.63;;
5995;SDS011;3026;53.612;7.278;2022-09-09T11:00:17;6.67;;;3.40;;
5995;SDS011;3026;53.612;7.278;2022-09-09T11:02:45;4.73;;;2.90;;
5995;SDS011;3026;53.612;7.278;2022-09-09T11:05:19;5.33;;;2.97;;
5995;SDS011;3026;53.612;7.278;2022-09-09T11:07:49;5.67;;;2.73;;
5995;SDS011;3026;53.612;7.278;2022-09-09T11:10:23;4.80;;;2.90;;
5995;SDS011;3026;53.612;7.278;2022-09-09T11:12:53;4.53;;;2.83;;
5995;SDS011;3026;53.612;7.278;2022-09-09T11:15:28;5.93;;;2.73;;
5995;SDS011;3026;53.612;7.278;2022-09-09T11:18:01;5.30;;;2.90;;
5995;SDS011;3026;53.612;7.278;2022-09-09T11:20:31;4.93;;;2.27;;
5995;SDS011;3026;53.612;7.278;2022-09-09T11:22:59;5.87;;;2.40;;
5995;SDS011;3026;53.612;7.278;2022-09-09T11:25:31;5.70;;;1.87;;
5995;SDS011;3026;53.612;7.278;2022-09-09T11:28:17;5.37;;;2.57;;
5995;SDS011;3026;53.612;7.278;2022-09-09T11:31:01;3.33;;;2.37;;
5995;SDS011;3026;53.612;7.278;2022-09-09T11:33:44;5.30;;;2.23;;
5995;SDS011;3026;53.612;7.278;2022-09-09T11:36:26;5.50;;;2.33;;
5995;SDS011;3026;53.612;7.278;2022-09-09T11:39:07;4.43;;;2.47;;
5995;SDS011;3026;53.612;7.278;2022-09-09T11:41:50;7.77;;;2.73;;
5995;SDS011;3026;53.612;7.278;2022-09-09T11:44:17;7.07;;;2.50;;
5995;SDS011;3026;53.612;7.278;2022-09-09T11:46:52;7.80;;;2.40;;
5995;SDS011;3026;53.612;7.278;2022-09-09T11:49:26;9.57;;;2.43;;
5995;SDS011;3026;53.612;7.278;2022-09-09T11:51:56;7.53;;;2.20;;
5995;SDS011;3026;53.612;7.278;2022-09-09T11:54:28;3.83;;;1.97;;
5995;SDS011;3026;53.612;7.278;2022-09-09T11:56:57;6.43;;;2.20;;
5995;SDS011;3026;53.612;7.278;2022-09-09T11:59:25;8.77;;;2.80;;
5995;SDS011;3026;53.612;7.278;2022-09-09T12:01:56;15.00;;;3.57;;
5995;SDS011;3026;53.612;7.278;2022-09-09T12:04:29;5.63;;;2.83;;
5995;SDS011;3026;53.612;7.278;2022-09-09T12:07:00;6.97;;;1.97;;
5995;SDS011;3026;53.612;7.278;2022-09-09T12:09:32;7.20;;;2.07;;
5995;SDS011;3026;53.612;7.278;2022-09-09T12:12:06;8.40;;;2.60;;
5995;SDS011;3026;53.612;7.278;2022-09-09T12:14:35;5.63;;;2.07;;
5995;SDS011;3026;53.612;7.278;2022-09-09T12:17:18;6.67;;;2.50;;
5995;SDS011;3026;53.612;7.278;2022-09-09T12:19:47;7.30;;;2.20;;
5995;SDS011;3026;53.612;7.278;2022-09-09T12:22:16;7.60;;;2.70;;
5995;SDS011;3026;53.612;7.278;2022-09-09T12:24:53;8.63;;;2.43;;
5995;SDS011;3026;53.612;7.278;2022-09-09T12:27:25;9.03;;;2.50;;
5995;SDS011;3026;53.612;7.278;2022-09-09T12:29:59;7.20;;;2.10;;
5995;SDS011;3026;53.612;7.278;2022-09-09T12:32:33;4.40;;;1.70;;
5995;SDS011;3026;53.612;7.278;2022-09-09T12:35:00;6.40;;;2.00;;
5995;SDS011;3026;53.612;7.278;2022-09-09T12:37:31;3.20;;;1.63;;
5995;SDS011;3026;53.612;7.278;2022-09-09T12:40:02;2.57;;;1.53;;
5995;SDS011;3026;53.612;7.278;2022-09-09T12:42:31;3.53;;;1.93;;
5995;SDS011;3026;53.612;7.278;2022-09-09T12:44:59;6.40;;;2.30;;
5995;SDS011;3026;53.612;7.278;2022-09-09T12:47:35;6.40;;;2.00;;
5995;SDS011;3026;53.612;7.278;2022-09-09T12:50:14;7.17;;;2.10;;
5995;SDS011;3026;53.612;7.278;2022-09-09T12:52:43;4.17;;;1.93;;
5995;SDS011;3026;53.612;7.278;2022-09-09T12:55:14;7.33;;;2.40;;
5995;SDS011;3026;53.612;7.278;2022-09-09T12:57:44;6.93;;;2.60;;
5995;SDS011;3026;53.612;7.278;2022-09-09T13:00:12;4.90;;;1.77;;
5995;SDS011;3026;53.612;7.278;2022-09-09T13:02:47;3.83;;;2.13;;
5995;SDS011;3026;53.612;7.278;2022-09-09T13:05:17;4.03;;;1.97;;
5995;SDS011;3026;53.612;7.278;2022-09-09T13:07:46;7.57;;;2.03;;
5995;SDS011;3026;53.612;7.278;2022-09-09T13:10:14;7.27;;;2.60;;
5995;SDS011;3026;53.612;7.278;2022-09-09T13:12:45;6.33;;;1.83;;
5995;SDS011;3026;53.612;7.278;2022-09-09T13:15:16;6.87;;;1.80;;
5995;SDS011;3026;53.612;7.278;2022-09-09T13:17:53;8.77;;;1.93;;
5995;SDS011;3026;53.612;7.278;2022-09-09T13:20:22;4.50;;;1.70;;
5995;SDS011;3026;53.612;7.278;2022-09-09T13:22:50;5.63;;;2.00;;
5995;SDS011;3026;53.612;7.278;2022-09-09T13:25:21;4.90;;;2.10;;
5995;SDS011;3026;53.612;7.278;2022-09-09T13:27:51;5.30;;;1.80;;
5995;SDS011;3026;53.612;7.278;2022-09-09T13:30:21;3.37;;;2.20;;
5995;SDS011;3026;53.612;7.278;2022-09-09T13:33:04;5.87;;;1.90;;
5995;SDS011;3026;53.612;7.278;2022-09-09T13:35:45;4.63;;;1.80;;
5995;SDS011;3026;53.612;7.278;2022-09-09T13:38:15;6.73;;;1.80;;
5995;SDS011;3026;53.612;7.278;2022-09-09T13:40:51;4.30;;;1.50;;
5995;SDS011;3026;53.612;7.278;2022-09-09T13:43:21;6.67;;;1.50;;
5995;SDS011;3026;53.612;7.278;2022-09-09T13:45:56;5.03;;;1.67;;
5995;SDS011;3026;53.612;7.278;2022-09-09T13:48:26;3.50;;;1.60;;
5995;SDS011;3026;53.612;7.278;2022-09-09T13:51:04;4.07;;;1.50;;
5995;SDS011;3026;53.612;7.278;2022-09-09T13:53:31;7.47;;;1.87;;
5995;SDS011;3026;53.612;7.278;2022-09-09T13:55:58;5.57;;;1.63;;
5995;SDS011;3026;53.612;7.278;2022-09-09T13:58:26;2.83;;;1.27;;
5995;SDS011;3026;53.612;7.278;2022-09-09T14:00:53;5.73;;;1.93;;
5995;SDS011;3026;53.612;7.278;2022-09-09T14:03:20;7.57;;;1.70;;
5995;SDS011;3026;53.612;7.278;2022-09-09T14:05:48;3.57;;;1.33;;
5995;SDS011;3026;53.612;7.278;2022-09-09T14:08:19;4.53;;;1.23;;
5995;SDS011;3026;53.612;7.278;2022-09-09T14:10:48;3.47;;;1.80;;
5995;SDS011;3026;53.612;7.278;2022-09-09T14:13:15;3.33;;;1.43;;
5995;SDS011;3026;53.612;7.278;2022-09-09T14:15:42;3.97;;;1.73;;
5995;SDS011;3026;53.612;7.278;2022-09-09T14:18:09;5.83;;;1.80;;
5995;SDS011;3026;53.612;7.278;2022-09-09T14:20:38;8.43;;;1.80;;
5995;SDS011;3026;53.612;7.278;2022-09-09T14:23:07;6.20;;;1.90;;
5995;SDS011;3026;53.612;7.278;2022-09-09T14:25:38;5.27;;;1.47;;
5995;SDS011;3026;53.612;7.278;2022-09-09T14:28:07;7.37;;;1.80;;
5995;SDS011;3026;53.612;7.278;2022-09-09T14:30:35;3.63;;;1.70;;
5995;SDS011;3026;53.612;7.278;2022-09-09T14:33:03;3.90;;;1.67;;
5995;SDS011;3026;53.612;7.278;2022-09-09T14:35:30;7.40;;;2.07;;
5995;SDS011;3026;53.612;7.278;2022-09-09T14:37:58;3.97;;;1.50;;
5995;SDS011;3026;53.612;7.278;2022-09-09T14:40:27;3.63;;;1.40;;
5995;SDS011;3026;53.612;7.278;2022-09-09T14:42:54;1.17;;;1.00;;
5995;SDS011;3026;53.612;7.278;2022-09-09T14:45:21;3.07;;;1.27;;
5995;SDS011;3026;53.612;7.278;2022-09-09T14:47:50;8.07;;;1.77;;
5995;SDS011;3026;53.612;7.278;2022-09-09T14:50:17;2.37;;;1.20;;
5995;SDS011;3026;53.612;7.278;2022-09-09T14:52:44;4.23;;;1.30;;
5995;SDS011;3026;53.612;7.278;2022-09-09T14:55:11;3.90;;;1.40;;
5995;SDS011;3026;53.612;7.278;2022-09-09T14:57:39;5.40;;;1.37;;
5995;SDS011;3026;53.612;7.278;2022-09-09T15:00:07;2.87;;;1.23;;
5995;SDS011;3026;53.612;7.278;2022-09-09T15:02:34;7.70;;;2.53;;
5995;SDS011;3026;53.612;7.278;2022-09-09T15:05:01;7.20;;;2.50;;
5995;SDS011;3026;53.612;7.278;2022-09-09T15:07:29;5.77;;;2.30;;
5995;SDS011;3026;53.612;7.278;2022-09-09T15:09:57;7.30;;;2.83;;
5995;SDS011;3026;53.612;7.278;2022-09-09T15:12:24;5.23;;;2.40;;
5995;SDS011;3026;53.612;7.278;2022-09-09T15:14:52;4.30;;;1.70;;
5995;SDS011;3026;53.612;7.278;2022-09-09T15:17:20;4.27;;;1.60;;
5995;SDS011;3026;53.612;7.278;2022-09-09T15:19:46;2.57;;;1.37;;
5995;SDS011;3026;53.612;7.278;2022-09-09T15:22:15;4.93;;;1.70;;
5995;SDS011;3026;53.612;7.278;2022-09-09T15:24:42;5.63;;;1.80;;
5995;SDS011;3026;53.612;7.278;2022-09-09T15:27:09;5.13;;;2.13;;
5995;SDS011;3026;53.612;7.278;2022-09-09T15:29:35;10.80;;;3.20;;
5995;SDS011;3026;53.612;7.278;2022-09-09T15:32:05;8.97;;;3.60;;
5995;SDS011;3026;53.612;7.278;2022-09-09T15:34:32;5.60;;;2.80;;
5995;SDS011;3026;53.612;7.278;2022-09-09T15:36:59;4.20;;;2.70;;
5995;SDS011;3026;53.612;7.278;2022-09-09T15:39:25;4.57;;;2.83;;
5995;SDS011;3026;53.612;7.278;2022-09-09T15:41:52;8.13;;;2.97;;